sensor_id;sensor_type;location;lat;lon;timestamp;P1;durP1;ratioP1;P2;durP2;ratioP2
71622;SDS011;59473;53.214;5.728;2024-01-15T00:00:23;22.98;;;6.90;;
71622;SDS011;59473;53.214;5.728;2024-01-15T00:02:48;26.70;;;7.30;;
71622;SDS011;59473;53.214;5.728;2024-01-15T00:05:13;22.87;;;7.73;;
71622;SDS011;59473;53.214;5.728;2024-01-15T00:07:38;20.93;;;7.30;;
71622;SDS011;59473;53.214;5.728;2024-01-15T00:10:04;25.70;;;8.25;;
71622;SDS011;59473;53.214;5.728;2024-01-15T00:12:29;22.50;;;6.73;;
71622;SDS011;59473;53.214;5.728;2024-01-15T00:14:54;18.87;;;7.13;;
71622;SDS011;59473;53.214;5.728;2024-01-15T00:17:20;17.33;;;6.47;;
71622;SDS011;59473;53.214;5.728;2024-01-15T00:19:45;19.53;;;7.00;;
71622;SDS011;59473;53.214;5.728;2024-01-15T00:22:10;21.60;;;7.37;;
71622;SDS011;59473;53.214;5.728;2024-01-15T00:24:35;18.87;;;6.60;;
71622;SDS011;59473;53.214;5.728;2024-01-15T00:27:01;22.93;;;6.17;;
71622;SDS011;59473;53.214;5.728;2024-01-15T00:29:26;22.03;;;6.47;;
71622;SDS011;59473;53.214;5.728;2024-01-15T00:31:52;25.55;;;7.07;;
71622;SDS011;59473;53.214;5.728;2024-01-15T00:34:17;29.67;;;7.57;;
71622;SDS011;59473;53.214;5.728;2024-01-15T00:36:42;29.17;;;7.57;;
71622;SDS011;59473;53.214;5.728;2024-01-15T00:39:08;13.50;;;5.37;;
71622;SDS011;59473;53.214;5.728;2024-01-15T00:41:35;14.77;;;5.38;;
71622;SDS011;59473;53.214;5.728;2024-01-15T00:44:00;12.40;;;5.60;;
71622;SDS011;59473;53.214;5.728;2024-01-15T00:46:26;19.47;;;5.90;;
71622;SDS011;59473;53.214;5.728;2024-01-15T00:48:51;18.60;;;6.63;;
71622;SDS011;59473;53.214;5.728;2024-01-15T00:51:16;16.47;;;6.03;;
71622;SDS011;59473;53.214;5.728;2024-01-15T00:53:41;18.57;;;6.90;;
71622;SDS011;59473;53.214;5.728;2024-01-15T00:56:07;20.13;;;5.80;;
71622;SDS011;59473;53.214;5.728;2024-01-15T00:58:32;20.10;;;6.57;;
71622;SDS011;59473;53.214;5.728;2024-01-15T01:00:57;21.40;;;7.20;;
71622;SDS011;59473;53.214;5.728;2024-01-15T01:03:22;22.90;;;7.23;;
71622;SDS011;59473;53.214;5.728;2024-01-15T01:05:48;21.23;;;6.53;;
71622;SDS011;59473;53.214;5.728;2024-01-15T01:08:13;22.10;;;6.63;;
71622;SDS011;59473;53.214;5.728;2024-01-15T01:10:38;20.57;;;6.43;;
71622;SDS011;59473;53.214;5.728;2024-01-15T01:13:04;24.17;;;6.47;;
71622;SDS011;59473;53.214;5.728;2024-01-15T01:15:29;25.17;;;6.70;;
71622;SDS011;59473;53.214;5.728;2024-01-15T01:17:54;30.20;;;8.05;;
71622;SDS011;59473;53.214;5.728;2024-01-15T01:20:19;34.13;;;8.33;;
71622;SDS011;59473;53.214;5.728;2024-01-15T01:22:45;39.37;;;7.70;;
71622;SDS011;59473;53.214;5.728;2024-01-15T01:25:10;24.20;;;7.63;;
71622;SDS011;59473;53.214;5.728;2024-01-15T01:27:35;33.67;;;8.73;;
71622;SDS011;59473;53.214;5.728;2024-01-15T01:30:00;27.27;;;7.65;;
71622;SDS011;59473;53.214;5.728;2024-01-15T01:32:26;29.17;;;7.90;;
71622;SDS011;59473;53.214;5.728;2024-01-15T01:34:51;27.23;;;7.57;;
71622;SDS011;59473;53.214;5.728;2024-01-15T01:37:16;24.03;;;8.07;;
71622;SDS011;59473;53.214;5.728;2024-01-15T01:39:42;30.23;;;8.40;;
71622;SDS011;59473;53.214;5.728;2024-01-15T01:42:07;30.17;;;8.43;;
71622;SDS011;59473;53.214;5.728;2024-01-15T01:44:33;26.92;;;7.22;;
71622;SDS011;59473;53.214;5.728;2024-01-15T01:46:58;32.40;;;8.00;;
71622;SDS011;59473;53.214;5.728;2024-01-15T01:49:24;26.27;;;7.95;;
71622;SDS011;59473;53.214;5.728;2024-01-15T01:51:49;31.40;;;7.57;;
71622;SDS011;59473;53.214;5.728;2024-01-15T01:54:15;24.87;;;6.40;;
71622;SDS011;59473;53.214;5.728;2024-01-15T01:56:41;37.50;;;8.60;;
71622;SDS011;59473;53.214;5.728;2024-01-15T01:59:06;33.08;;;8.57;;
71622;SDS011;59473;53.214;5.728;2024-01-15T02:01:32;31.20;;;7.20;;
71622;SDS011;59473;53.214;5.728;2024-01-15T02:03:58;27.00;;;8.20;;
71622;SDS011;59473;53.214;5.728;2024-01-15T02:06:23;33.40;;;8.77;;
71622;SDS011;59473;53.214;5.728;2024-01-15T02:08:49;27.73;;;6.87;;
71622;SDS011;59473;53.214;5.728;2024-01-15T02:11:15;22.20;;;6.45;;
71622;SDS011;59473;53.214;5.728;2024-01-15T02:13:40;21.10;;;5.63;;
71622;SDS011;59473;53.214;5.728;2024-01-15T02:16:05;31.77;;;8.13;;
71622;SDS011;59473;53.214;5.728;2024-01-15T02:18:39;23.83;;;6.30;;
71622;SDS011;59473;53.214;5.728;2024-01-15T02:21:04;20.55;;;6.63;;
71622;SDS011;59473;53.214;5.728;2024-01-15T02:23:30;24.43;;;6.80;;
71622;SDS011;59473;53.214;5.728;2024-01-15T02:25:55;26.67;;;6.20;;
71622;SDS011;59473;53.214;5.728;2024-01-15T02:28:20;29.60;;;7.83;;
71622;SDS011;59473;53.214;5.728;2024-01-15T02:30:45;29.07;;;7.00;;
71622;SDS011;59473;53.214;5.728;2024-01-15T02:33:11;33.60;;;7.80;;
71622;SDS011;59473;53.214;5.728;2024-01-15T02:35:36;21.33;;;7.03;;
71622;SDS011;59473;53.214;5.728;2024-01-15T02:38:02;19.17;;;6.33;;
71622;SDS011;59473;53.214;5.728;2024-01-15T02:40:27;17.33;;;6.55;;
71622;SDS011;59473;53.214;5.728;2024-01-15T02:42:52;15.77;;;6.87;;
71622;SDS011;59473;53.214;5.728;2024-01-15T02:45:18;15.20;;;5.57;;
71622;SDS011;59473;53.214;5.728;2024-01-15T02:47:43;18.17;;;5.90;;
71622;SDS011;59473;53.214;5.728;2024-01-15T02:50:08;18.30;;;6.77;;
71622;SDS011;59473;53.214;5.728;2024-01-15T02:52:33;16.37;;;6.57;;
71622;SDS011;59473;53.214;5.728;2024-01-15T02:54:59;24.23;;;6.27;;
71622;SDS011;59473;53.214;5.728;2024-01-15T02:57:24;24.63;;;6.77;;
71622;SDS011;59473;53.214;5.728;2024-01-15T02:59:49;27.67;;;6.93;;
71622;SDS011;59473;53.214;5.728;2024-01-15T03:02:14;18.83;;;6.00;;
71622;SDS011;59473;53.214;5.728;2024-01-15T03:04:43;27.63;;;6.47;;
71622;SDS011;59473;53.214;5.728;2024-01-15T03:07:08;26.80;;;6.25;;
71622;SDS011;59473;53.214;5.728;2024-01-15T03:09:34;22.97;;;7.80;;
71622;SDS011;59473;53.214;5.728;2024-01-15T03:11:59;22.70;;;6.57;;
71622;SDS011;59473;53.214;5.728;2024-01-15T03:14:24;39.83;;;6.60;;
71622;SDS011;59473;53.214;5.728;2024-01-15T03:16:51;13.30;;;5.90;;
71622;SDS011;59473;53.214;5.728;2024-01-15T03:19:16;19.13;;;6.03;;
71622;SDS011;59473;53.214;5.728;2024-01-15T03:21:41;17.17;;;5.77;;
71622;SDS011;59473;53.214;5.728;2024-01-15T03:24:06;21.63;;;6.17;;
71622;SDS011;59473;53.214;5.728;2024-01-15T03:26:32;19.70;;;6.00;;
71622;SDS011;59473;53.214;5.728;2024-01-15T03:28:57;19.20;;;6.53;;
71622;SDS011;59473;53.214;5.728;2024-01-15T03:31:22;18.67;;;5.40;;
71622;SDS011;59473;53.214;5.728;2024-01-15T03:33:47;20.50;;;6.10;;
71622;SDS011;59473;53.214;5.728;2024-01-15T03:36:12;17.50;;;6.50;;
71622;SDS011;59473;53.214;5.728;2024-01-15T03:38:41;15.50;;;5.03;;
71622;SDS011;59473;53.214;5.728;2024-01-15T03:41:06;13.40;;;5.20;;
71622;SDS011;59473;53.214;5.728;2024-01-15T03:43:32;10.93;;;5.40;;
71622;SDS011;59473;53.214;5.728;2024-01-15T03:45:57;14.07;;;4.93;;
71622;SDS011;59473;53.214;5.728;2024-01-15T03:48:22;11.37;;;5.17;;
71622;SDS011;59473;53.214;5.728;2024-01-15T03:50:47;9.63;;;4.63;;
71622;SDS011;59473;53.214;5.728;2024-01-15T03:53:12;10.60;;;4.67;;
71622;SDS011;59473;53.214;5.728;2024-01-15T03:55:38;9.60;;;4.70;;
71622;SDS011;59473;53.214;5.728;2024-01-15T03:58:03;14.17;;;5.20;;
71622;SDS011;59473;53.214;5.728;2024-01-15T04:00:28;15.20;;;5.53;;
71622;SDS011;59473;53.214;5.728;2024-01-15T04:02:53;19.20;;;6.27;;
71622;SDS011;59473;53.214;5.728;2024-01-15T04:05:19;16.83;;;5.97;;
71622;SDS011;59473;53.214;5.728;2024-01-15T04:07:44;27.35;;;7.20;;
71622;SDS011;59473;53.214;5.728;2024-01-15T04:10:09;17.80;;;5.80;;
71622;SDS011;59473;53.214;5.728;2024-01-15T04:12:35;19.70;;;5.23;;
71622;SDS011;59473;53.214;5.728;2024-01-15T04:15:00;20.30;;;6.73;;
71622;SDS011;59473;53.214;5.728;2024-01-15T04:17:26;23.20;;;6.30;;
71622;SDS011;59473;53.214;5.728;2024-01-15T04:19:51;18.83;;;6.22;;
71622;SDS011;59473;53.214;5.728;2024-01-15T04:22:16;24.90;;;7.40;;
71622;SDS011;59473;53.214;5.728;2024-01-15T04:24:42;16.90;;;6.03;;
71622;SDS011;59473;53.214;5.728;2024-01-15T04:27:07;23.50;;;6.37;;
71622;SDS011;59473;53.214;5.728;2024-01-15T04:29:33;23.87;;;6.50;;
71622;SDS011;59473;53.214;5.728;2024-01-15T04:31:58;14.83;;;4.87;;
71622;SDS011;59473;53.214;5.728;2024-01-15T04:34:23;20.63;;;6.00;;
71622;SDS011;59473;53.214;5.728;2024-01-15T04:36:48;18.20;;;5.10;;
71622;SDS011;59473;53.214;5.728;2024-01-15T04:39:14;22.47;;;6.53;;
71622;SDS011;59473;53.214;5.728;2024-01-15T04:41:39;14.17;;;5.47;;
71622;SDS011;59473;53.214;5.728;2024-01-15T04:44:04;15.97;;;6.33;;
71622;SDS011;59473;53.214;5.728;2024-01-15T04:46:29;16.33;;;6.03;;
71622;SDS011;59473;53.214;5.728;2024-01-15T04:48:55;12.87;;;5.67;;
71622;SDS011;59473;53.214;5.728;2024-01-15T04:51:20;15.37;;;6.00;;
71622;SDS011;59473;53.214;5.728;2024-01-15T04:53:45;14.30;;;6.13;;
71622;SDS011;59473;53.214;5.728;2024-01-15T04:56:10;14.73;;;5.63;;
71622;SDS011;59473;53.214;5.728;2024-01-15T04:58:35;19.07;;;5.73;;
71622;SDS011;59473;53.214;5.728;2024-01-15T05:01:01;19.90;;;6.17;;
71622;SDS011;59473;53.214;5.728;2024-01-15T05:03:26;22.43;;;6.23;;
71622;SDS011;59473;53.214;5.728;2024-01-15T05:05:51;28.10;;;6.57;;
71622;SDS011;59473;53.214;5.728;2024-01-15T05:08:16;21.30;;;6.30;;
71622;SDS011;59473;53.214;5.728;2024-01-15T05:10:42;23.80;;;7.43;;
71622;SDS011;59473;53.214;5.728;2024-01-15T05:13:07;24.17;;;6.53;;
71622;SDS011;59473;53.214;5.728;2024-01-15T05:15:32;24.63;;;6.60;;
71622;SDS011;59473;53.214;5.728;2024-01-15T05:17:57;30.33;;;7.47;;
71622;SDS011;59473;53.214;5.728;2024-01-15T05:20:23;28.77;;;7.37;;
71622;SDS011;59473;53.214;5.728;2024-01-15T05:22:48;28.77;;;8.37;;
71622;SDS011;59473;53.214;5.728;2024-01-15T05:25:13;23.70;;;6.03;;
71622;SDS011;59473;53.214;5.728;2024-01-15T05:27:38;22.70;;;7.17;;
71622;SDS011;59473;53.214;5.728;2024-01-15T05:30:04;18.60;;;7.43;;
71622;SDS011;59473;53.214;5.728;2024-01-15T05:32:29;21.77;;;6.72;;
71622;SDS011;59473;53.214;5.728;2024-01-15T05:34:54;24.77;;;7.87;;
71622;SDS011;59473;53.214;5.728;2024-01-15T05:37:19;23.30;;;7.10;;
71622;SDS011;59473;53.214;5.728;2024-01-15T05:39:45;18.23;;;5.87;;
71622;SDS011;59473;53.214;5.728;2024-01-15T05:42:10;19.93;;;7.13;;
71622;SDS011;59473;53.214;5.728;2024-01-15T05:44:35;21.63;;;6.67;;
71622;SDS011;59473;53.214;5.728;2024-01-15T05:47:00;24.30;;;6.90;;
71622;SDS011;59473;53.214;5.728;2024-01-15T05:49:26;24.47;;;6.67;;
71622;SDS011;59473;53.214;5.728;2024-01-15T05:51:51;22.60;;;7.47;;
71622;SDS011;59473;53.214;5.728;2024-01-15T05:54:17;22.10;;;7.17;;
71622;SDS011;59473;53.214;5.728;2024-01-15T05:56:43;26.23;;;7.40;;
71622;SDS011;59473;53.214;5.728;2024-01-15T05:59:08;19.20;;;7.10;;
71622;SDS011;59473;53.214;5.728;2024-01-15T06:01:33;24.83;;;7.53;;
71622;SDS011;59473;53.214;5.728;2024-01-15T06:03:58;12.87;;;6.13;;
71622;SDS011;59473;53.214;5.728;2024-01-15T06:06:24;13.80;;;6.43;;
71622;SDS011;59473;53.214;5.728;2024-01-15T06:08:49;17.70;;;5.83;;
71622;SDS011;59473;53.214;5.728;2024-01-15T06:11:14;14.53;;;5.70;;
71622;SDS011;59473;53.214;5.728;2024-01-15T06:13:39;15.80;;;5.80;;
71622;SDS011;59473;53.214;5.728;2024-01-15T06:16:12;10.57;;;5.97;;
71622;SDS011;59473;53.214;5.728;2024-01-15T06:18:38;16.67;;;7.25;;
71622;SDS011;59473;53.214;5.728;2024-01-15T06:21:03;14.93;;;6.37;;
71622;SDS011;59473;53.214;5.728;2024-01-15T06:23:29;16.02;;;5.95;;
71622;SDS011;59473;53.214;5.728;2024-01-15T06:25:54;13.80;;;5.23;;
71622;SDS011;59473;53.214;5.728;2024-01-15T06:28:19;17.17;;;5.80;;
71622;SDS011;59473;53.214;5.728;2024-01-15T06:30:45;14.90;;;5.80;;
71622;SDS011;59473;53.214;5.728;2024-01-15T06:33:10;11.30;;;5.07;;
71622;SDS011;59473;53.214;5.728;2024-01-15T06:35:35;15.90;;;5.47;;
71622;SDS011;59473;53.214;5.728;2024-01-15T06:38:00;16.60;;;5.60;;
71622;SDS011;59473;53.214;5.728;2024-01-15T06:40:25;17.97;;;5.70;;
71622;SDS011;59473;53.214;5.728;2024-01-15T06:42:51;18.97;;;6.23;;
71622;SDS011;59473;53.214;5.728;2024-01-15T06:45:16;18.83;;;5.53;;
71622;SDS011;59473;53.214;5.728;2024-01-15T06:47:41;17.53;;;5.13;;
71622;SDS011;59473;53.214;5.728;2024-01-15T06:50:07;20.13;;;5.40;;
71622;SDS011;59473;53.214;5.728;2024-01-15T06:52:32;21.47;;;7.17;;
71622;SDS011;59473;53.214;5.728;2024-01-15T06:54:57;24.60;;;7.40;;
71622;SDS011;59473;53.214;5.728;2024-01-15T06:57:22;23.63;;;7.30;;
71622;SDS011;59473;53.214;5.728;2024-01-15T06:59:48;20.67;;;6.80;;
71622;SDS011;59473;53.214;5.728;2024-01-15T07:02:14;19.55;;;6.45;;
71622;SDS011;59473;53.214;5.728;2024-01-15T07:04:39;17.73;;;6.17;;
71622;SDS011;59473;53.214;5.728;2024-01-15T07:07:04;19.93;;;6.93;;
71622;SDS011;59473;53.214;5.728;2024-01-15T07:09:29;21.40;;;6.80;;
71622;SDS011;59473;53.214;5.728;2024-01-15T07:11:54;18.27;;;7.03;;
71622;SDS011;59473;53.214;5.728;2024-01-15T07:14:22;16.77;;;6.78;;
71622;SDS011;59473;53.214;5.728;2024-01-15T07:16:47;14.03;;;6.63;;
71622;SDS011;59473;53.214;5.728;2024-01-15T07:19:12;25.70;;;7.70;;
71622;SDS011;59473;53.214;5.728;2024-01-15T07:21:37;25.20;;;6.63;;
71622;SDS011;59473;53.214;5.728;2024-01-15T07:24:05;19.42;;;6.40;;
71622;SDS011;59473;53.214;5.728;2024-01-15T07:26:30;29.73;;;7.20;;
71622;SDS011;59473;53.214;5.728;2024-01-15T07:28:55;19.90;;;6.60;;
71622;SDS011;59473;53.214;5.728;2024-01-15T07:31:20;21.73;;;6.83;;
71622;SDS011;59473;53.214;5.728;2024-01-15T07:33:46;13.23;;;6.00;;
71622;SDS011;59473;53.214;5.728;2024-01-15T07:36:11;9.70;;;6.20;;
71622;SDS011;59473;53.214;5.728;2024-01-15T07:38:37;9.73;;;5.80;;
71622;SDS011;59473;53.214;5.728;2024-01-15T07:41:02;7.63;;;5.85;;
71622;SDS011;59473;53.214;5.728;2024-01-15T07:43:28;9.40;;;5.13;;
71622;SDS011;59473;53.214;5.728;2024-01-15T07:45:54;11.82;;;5.57;;
71622;SDS011;59473;53.214;5.728;2024-01-15T07:48:19;11.40;;;6.88;;
71622;SDS011;59473;53.214;5.728;2024-01-15T07:50:45;14.05;;;5.22;;
71622;SDS011;59473;53.214;5.728;2024-01-15T07:53:10;9.13;;;6.00;;
71622;SDS011;59473;53.214;5.728;2024-01-15T07:55:36;8.13;;;5.23;;
71622;SDS011;59473;53.214;5.728;2024-01-15T07:58:01;8.10;;;5.03;;
71622;SDS011;59473;53.214;5.728;2024-01-15T08:00:27;10.88;;;5.43;;
71622;SDS011;59473;53.214;5.728;2024-01-15T08:02:52;9.37;;;5.60;;
71622;SDS011;59473;53.214;5.728;2024-01-15T08:05:18;11.48;;;5.38;;
71622;SDS011;59473;53.214;5.728;2024-01-15T08:07:43;8.53;;;5.00;;
71622;SDS011;59473;53.214;5.728;2024-01-15T08:10:09;11.63;;;7.07;;
71622;SDS011;59473;53.214;5.728;2024-01-15T08:12:34;10.93;;;5.73;;
71622;SDS011;59473;53.214;5.728;2024-01-15T08:14:59;12.33;;;4.90;;
71622;SDS011;59473;53.214;5.728;2024-01-15T08:17:24;16.60;;;5.77;;
71622;SDS011;59473;53.214;5.728;2024-01-15T08:19:53;15.60;;;4.88;;
71622;SDS011;59473;53.214;5.728;2024-01-15T08:22:18;16.07;;;5.97;;
71622;SDS011;59473;53.214;5.728;2024-01-15T08:24:44;12.37;;;5.43;;
71622;SDS011;59473;53.214;5.728;2024-01-15T08:27:09;17.00;;;6.87;;
71622;SDS011;59473;53.214;5.728;2024-01-15T08:29:34;12.67;;;5.70;;
71622;SDS011;59473;53.214;5.728;2024-01-15T08:32:00;19.00;;;6.27;;
71622;SDS011;59473;53.214;5.728;2024-01-15T08:34:25;12.00;;;6.10;;
71622;SDS011;59473;53.214;5.728;2024-01-15T08:36:50;14.83;;;6.17;;
71622;SDS011;59473;53.214;5.728;2024-01-15T08:39:16;10.95;;;5.22;;
71622;SDS011;59473;53.214;5.728;2024-01-15T08:41:41;16.10;;;5.60;;
71622;SDS011;59473;53.214;5.728;2024-01-15T08:44:06;12.60;;;6.10;;
71622;SDS011;59473;53.214;5.728;2024-01-15T08:46:32;15.97;;;6.40;;
71622;SDS011;59473;53.214;5.728;2024-01-15T08:48:57;15.90;;;5.23;;
71622;SDS011;59473;53.214;5.728;2024-01-15T08:51:22;14.50;;;5.23;;
71622;SDS011;59473;53.214;5.728;2024-01-15T08:53:47;15.13;;;6.80;;
71622;SDS011;59473;53.214;5.728;2024-01-15T08:56:13;16.47;;;6.60;;
71622;SDS011;59473;53.214;5.728;2024-01-15T08:58:38;15.57;;;5.93;;
71622;SDS011;59473;53.214;5.728;2024-01-15T09:01:03;19.90;;;5.47;;
71622;SDS011;59473;53.214;5.728;2024-01-15T09:03:28;15.20;;;6.60;;
71622;SDS011;59473;53.214;5.728;2024-01-15T09:05:54;14.90;;;6.00;;
71622;SDS011;59473;53.214;5.728;2024-01-15T09:08:19;16.30;;;6.07;;
71622;SDS011;59473;53.214;5.728;2024-01-15T09:10:44;16.33;;;5.77;;
71622;SDS011;59473;53.214;5.728;2024-01-15T09:13:10;13.27;;;5.23;;
71622;SDS011;59473;53.214;5.728;2024-01-15T09:15:36;16.03;;;5.47;;
71622;SDS011;59473;53.214;5.728;2024-01-15T09:18:01;15.30;;;5.13;;
71622;SDS011;59473;53.214;5.728;2024-01-15T09:20:27;16.67;;;6.47;;
71622;SDS011;59473;53.214;5.728;2024-01-15T09:22:53;15.33;;;5.47;;
71622;SDS011;59473;53.214;5.728;2024-01-15T09:25:19;14.87;;;5.70;;
71622;SDS011;59473;53.214;5.728;2024-01-15T09:27:44;12.32;;;5.93;;
71622;SDS011;59473;53.214;5.728;2024-01-15T09:30:09;16.70;;;5.67;;
71622;SDS011;59473;53.214;5.728;2024-01-15T09:32:36;16.40;;;5.90;;
71622;SDS011;59473;53.214;5.728;2024-01-15T09:35:01;13.00;;;5.33;;
71622;SDS011;59473;53.214;5.728;2024-01-15T09:37:26;12.70;;;5.13;;
71622;SDS011;59473;53.214;5.728;2024-01-15T09:39:51;9.27;;;5.80;;
71622;SDS011;59473;53.214;5.728;2024-01-15T09:42:17;9.40;;;5.07;;
71622;SDS011;59473;53.214;5.728;2024-01-15T09:44:42;10.70;;;5.33;;
71622;SDS011;59473;53.214;5.728;2024-01-15T09:47:08;15.02;;;6.25;;
71622;SDS011;59473;53.214;5.728;2024-01-15T09:49:33;13.33;;;5.63;;
71622;SDS011;59473;53.214;5.728;2024-01-15T09:51:58;13.83;;;5.63;;
71622;SDS011;59473;53.214;5.728;2024-01-15T09:54:24;13.73;;;5.30;;
71622;SDS011;59473;53.214;5.728;2024-01-15T09:56:49;14.13;;;5.57;;
71622;SDS011;59473;53.214;5.728;2024-01-15T09:59:18;17.85;;;7.10;;
71622;SDS011;59473;53.214;5.728;2024-01-15T10:01:44;10.65;;;5.13;;
71622;SDS011;59473;53.214;5.728;2024-01-15T10:04:13;11.50;;;5.13;;
71622;SDS011;59473;53.214;5.728;2024-01-15T10:06:38;13.07;;;5.10;;
71622;SDS011;59473;53.214;5.728;2024-01-15T10:09:04;20.55;;;5.85;;
71622;SDS011;59473;53.214;5.728;2024-01-15T10:11:30;8.30;;;4.63;;
71622;SDS011;59473;53.214;5.728;2024-01-15T10:13:55;8.37;;;4.90;;
71622;SDS011;59473;53.214;5.728;2024-01-15T10:16:22;7.45;;;4.22;;
71622;SDS011;59473;53.214;5.728;2024-01-15T10:18:48;12.37;;;5.37;;
71622;SDS011;59473;53.214;5.728;2024-01-15T10:21:13;16.30;;;5.35;;
71622;SDS011;59473;53.214;5.728;2024-01-15T10:23:39;13.20;;;5.43;;
71622;SDS011;59473;53.214;5.728;2024-01-15T10:26:04;14.20;;;5.70;;
71622;SDS011;59473;53.214;5.728;2024-01-15T10:28:30;16.45;;;5.90;;
71622;SDS011;59473;53.214;5.728;2024-01-15T10:30:56;15.82;;;5.75;;
71622;SDS011;59473;53.214;5.728;2024-01-15T10:33:22;16.20;;;6.82;;
71622;SDS011;59473;53.214;5.728;2024-01-15T10:35:51;20.33;;;6.60;;
71622;SDS011;59473;53.214;5.728;2024-01-15T10:38:18;19.20;;;6.47;;
71622;SDS011;59473;53.214;5.728;2024-01-15T10:40:47;16.05;;;5.75;;
71622;SDS011;59473;53.214;5.728;2024-01-15T10:43:12;18.40;;;6.20;;
71622;SDS011;59473;53.214;5.728;2024-01-15T10:45:37;18.13;;;6.40;;
71622;SDS011;59473;53.214;5.728;2024-01-15T10:48:02;14.43;;;6.03;;
71622;SDS011;59473;53.214;5.728;2024-01-15T10:50:28;13.18;;;5.45;;
71622;SDS011;59473;53.214;5.728;2024-01-15T10:52:54;13.50;;;5.35;;
71622;SDS011;59473;53.214;5.728;2024-01-15T10:55:20;9.97;;;5.43;;
71622;SDS011;59473;53.214;5.728;2024-01-15T10:57:46;9.52;;;5.65;;
71622;SDS011;59473;53.214;5.728;2024-01-15T11:00:13;9.87;;;4.90;;
71622;SDS011;59473;53.214;5.728;2024-01-15T11:02:39;11.43;;;5.20;;
71622;SDS011;59473;53.214;5.728;2024-01-15T11:05:05;15.93;;;6.20;;
71622;SDS011;59473;53.214;5.728;2024-01-15T11:07:31;19.13;;;7.77;;
71622;SDS011;59473;53.214;5.728;2024-01-15T11:09:57;21.92;;;6.38;;
71622;SDS011;59473;53.214;5.728;2024-01-15T11:12:25;29.85;;;7.45;;
71622;SDS011;59473;53.214;5.728;2024-01-15T11:14:50;27.27;;;7.80;;
71622;SDS011;59473;53.214;5.728;2024-01-15T11:17:19;19.97;;;6.50;;
71622;SDS011;59473;53.214;5.728;2024-01-15T11:19:45;16.88;;;5.32;;
71622;SDS011;59473;53.214;5.728;2024-01-15T11:22:11;17.27;;;6.15;;
71622;SDS011;59473;53.214;5.728;2024-01-15T11:25:17;14.97;;;6.57;;
71622;SDS011;59473;53.214;5.728;2024-01-15T11:27:49;13.70;;;6.55;;
71622;SDS011;59473;53.214;5.728;2024-01-15T11:30:18;14.48;;;6.63;;
71622;SDS011;59473;53.214;5.728;2024-01-15T11:32:45;18.17;;;5.57;;
71622;SDS011;59473;53.214;5.728;2024-01-15T11:35:11;18.60;;;6.30;;
71622;SDS011;59473;53.214;5.728;2024-01-15T11:42:57;11.82;;;5.55;;
71622;SDS011;59473;53.214;5.728;2024-01-15T11:45:23;17.30;;;5.97;;
71622;SDS011;59473;53.214;5.728;2024-01-15T11:50:32;17.38;;;6.13;;
71622;SDS011;59473;53.214;5.728;2024-01-15T11:53:02;19.07;;;5.77;;
71622;SDS011;59473;53.214;5.728;2024-01-15T11:55:30;18.80;;;6.13;;
71622;SDS011;59473;53.214;5.728;2024-01-15T11:57:58;19.77;;;6.53;;
71622;SDS011;59473;53.214;5.728;2024-01-15T12:00:25;16.00;;;5.23;;
71622;SDS011;59473;53.214;5.728;2024-01-15T12:02:51;14.70;;;5.88;;
71622;SDS011;59473;53.214;5.728;2024-01-15T12:05:16;10.20;;;5.23;;
71622;SDS011;59473;53.214;5.728;2024-01-15T12:07:42;15.53;;;5.23;;
71622;SDS011;59473;53.214;5.728;2024-01-15T12:10:08;13.70;;;4.88;;
71622;SDS011;59473;53.214;5.728;2024-01-15T12:14:59;15.50;;;5.70;;
71622;SDS011;59473;53.214;5.728;2024-01-15T12:17:24;13.40;;;5.23;;
71622;SDS011;59473;53.214;5.728;2024-01-15T12:19:50;14.83;;;5.67;;
71622;SDS011;59473;53.214;5.728;2024-01-15T12:22:15;20.20;;;6.33;;
71622;SDS011;59473;53.214;5.728;2024-01-15T12:24:40;14.20;;;4.80;;
71622;SDS011;59473;53.214;5.728;2024-01-15T12:27:05;17.77;;;5.83;;
71622;SDS011;59473;53.214;5.728;2024-01-15T12:29:31;16.98;;;4.93;;
71622;SDS011;59473;53.214;5.728;2024-01-15T12:31:57;16.23;;;6.20;;
71622;SDS011;59473;53.214;5.728;2024-01-15T12:34:22;21.33;;;6.60;;
71622;SDS011;59473;53.214;5.728;2024-01-15T12:36:47;18.73;;;6.70;;
71622;SDS011;59473;53.214;5.728;2024-01-15T12:39:12;23.63;;;6.80;;
71622;SDS011;59473;53.214;5.728;2024-01-15T12:41:38;21.20;;;7.30;;
71622;SDS011;59473;53.214;5.728;2024-01-15T12:44:04;22.23;;;6.60;;
71622;SDS011;59473;53.214;5.728;2024-01-15T12:46:29;14.70;;;5.50;;
71622;SDS011;59473;53.214;5.728;2024-01-15T12:48:55;14.23;;;5.75;;
71622;SDS011;59473;53.214;5.728;2024-01-15T12:51:24;19.07;;;6.00;;
71622;SDS011;59473;53.214;5.728;2024-01-15T12:53:49;16.58;;;6.05;;
71622;SDS011;59473;53.214;5.728;2024-01-15T12:56:14;24.17;;;6.33;;
71622;SDS011;59473;53.214;5.728;2024-01-15T12:58:40;22.77;;;7.30;;
71622;SDS011;59473;53.214;5.728;2024-01-15T13:01:05;19.03;;;6.33;;
71622;SDS011;59473;53.214;5.728;2024-01-15T13:03:30;22.03;;;7.53;;
71622;SDS011;59473;53.214;5.728;2024-01-15T13:05:55;21.40;;;6.87;;
71622;SDS011;59473;53.214;5.728;2024-01-15T13:08:20;17.33;;;6.73;;
71622;SDS011;59473;53.214;5.728;2024-01-15T13:10:48;19.85;;;6.93;;
71622;SDS011;59473;53.214;5.728;2024-01-15T13:13:14;15.23;;;6.40;;
71622;SDS011;59473;53.214;5.728;2024-01-15T13:15:39;21.53;;;8.03;;
71622;SDS011;59473;53.214;5.728;2024-01-15T13:18:04;25.23;;;6.73;;
71622;SDS011;59473;53.214;5.728;2024-01-15T13:20:29;21.17;;;7.03;;
71622;SDS011;59473;53.214;5.728;2024-01-15T13:22:55;22.67;;;6.47;;
71622;SDS011;59473;53.214;5.728;2024-01-15T13:25:20;23.83;;;7.27;;
71622;SDS011;59473;53.214;5.728;2024-01-15T13:27:45;17.50;;;6.63;;
71622;SDS011;59473;53.214;5.728;2024-01-15T13:30:11;11.27;;;4.63;;
71622;SDS011;59473;53.214;5.728;2024-01-15T13:32:37;8.40;;;4.20;;
71622;SDS011;59473;53.214;5.728;2024-01-15T13:35:02;11.87;;;5.70;;
71622;SDS011;59473;53.214;5.728;2024-01-15T13:37:30;11.40;;;4.75;;
71622;SDS011;59473;53.214;5.728;2024-01-15T13:39:55;15.70;;;5.00;;
71622;SDS011;59473;53.214;5.728;2024-01-15T13:42:21;13.10;;;5.87;;
71622;SDS011;59473;53.214;5.728;2024-01-15T13:44:52;15.05;;;5.82;;
71622;SDS011;59473;53.214;5.728;2024-01-15T13:47:17;19.97;;;6.43;;
71622;SDS011;59473;53.214;5.728;2024-01-15T13:49:42;20.60;;;6.70;;
71622;SDS011;59473;53.214;5.728;2024-01-15T13:52:08;25.43;;;7.43;;
71622;SDS011;59473;53.214;5.728;2024-01-15T13:54:33;18.07;;;5.27;;
71622;SDS011;59473;53.214;5.728;2024-01-15T13:56:58;22.57;;;6.57;;
71622;SDS011;59473;53.214;5.728;2024-01-15T13:59:24;18.50;;;6.18;;
71622;SDS011;59473;53.214;5.728;2024-01-15T14:01:49;20.90;;;5.67;;
71622;SDS011;59473;53.214;5.728;2024-01-15T14:04:14;17.50;;;5.90;;
71622;SDS011;59473;53.214;5.728;2024-01-15T14:06:40;19.10;;;7.20;;
71622;SDS011;59473;53.214;5.728;2024-01-15T14:09:05;12.83;;;5.50;;
71622;SDS011;59473;53.214;5.728;2024-01-15T14:11:30;14.17;;;6.03;;
71622;SDS011;59473;53.214;5.728;2024-01-15T14:13:55;13.63;;;6.80;;
71622;SDS011;59473;53.214;5.728;2024-01-15T14:16:21;13.30;;;6.10;;
71622;SDS011;59473;53.214;5.728;2024-01-15T14:18:46;10.47;;;4.97;;
71622;SDS011;59473;53.214;5.728;2024-01-15T14:21:11;10.30;;;5.20;;
71622;SDS011;59473;53.214;5.728;2024-01-15T14:23:36;9.70;;;5.13;;
71622;SDS011;59473;53.214;5.728;2024-01-15T14:26:02;10.33;;;5.60;;
71622;SDS011;59473;53.214;5.728;2024-01-15T14:28:27;10.53;;;5.63;;
71622;SDS011;59473;53.214;5.728;2024-01-15T14:30:52;10.23;;;5.57;;
71622;SDS011;59473;53.214;5.728;2024-01-15T14:33:17;9.63;;;5.73;;
71622;SDS011;59473;53.214;5.728;2024-01-15T14:35:43;9.03;;;5.27;;